Briefing drone pour Albens

Rechercher une autre localisation

Conditions de vol :


Nous sommes le : Dimanche 14 avril 2024
Il est 01:55 UTC (03:55 LT)

Lever de soleil : 04:24 UTC (06:24 LT)
Coucher de soleil : 18:48 UTC (20:48 LT)

Météo

L'essentiel des conditions de vol

VIGILANCE MÉTÉO FRANCE - Savoie (73)
Vigilance Jaune : Pluie-inondation / Avalanches
CARTE TEMSI
CARTES DES FRONTS
METAR de LFLB
LFLB 140130Z AUTO 16002KT CAVOK 10/09 Q1026

Date d'émission: 14/04/2024
Heure d'émission: 01:30 UTC
Vent: 160° pour 2 KT (4 km/h)
Visibilité horizontale: > 10 km
Plafond : Plafond et visibilité OK (CAVOK)
Température: 10 °C
Point de rosée: 9 °C
Humidité: 94%
Pression (QNH): 1026 hPa
TAF de LFLB
LFLB 131905Z 1319/1415 CNL

Conditions prévues :

Heure d'émission : Bulletin éffectué le 13 à 19:00 UTC
Prévision : Valide du 13 a 19:00 UTC au 14 a 15:00 UTC
Nuages : à 0ft (0 m)
WEBCAM POUR ALBENS

Réglementation

Voler en sécurité

CARTES AERONAUTIQUE 1/500.000
CARTE AZBA (Reseau basse altitude)
CARTES VAC (LFLB)
SUP AIP




Chargement des AIP...
NOTAM (ALBENS + Terrain à proximité / FIR )




Chargement des NOTAMS...
CONTACT PREFECTURE 73
Savoie (73) : [email protected]


Avertissement : Les données mises à disposition sont indicatives. Oxygène Drone ne pourra être tenu responsable de dégâts causés aux biens et aux personnes.